createdAt,value
2017-12-27T00:02:04.103Z,3.67
2017-12-27T00:04:37.333Z,2.75
2017-12-27T00:07:10.587Z,4.72
2017-12-27T00:09:43.771Z,6.72
2017-12-27T00:12:17.043Z,3.78
2017-12-27T00:17:49.870Z,3.20
2017-12-27T00:20:32.203Z,3.70
2017-12-27T00:23:05.395Z,3.10
2017-12-27T00:25:38.686Z,3.72
2017-12-27T00:28:11.927Z,2.50
2017-12-27T00:30:45.125Z,3.17
2017-12-27T00:33:12.612Z,3.08
2017-12-27T00:35:40.155Z,3.12
2017-12-27T00:38:07.700Z,2.50
2017-12-27T00:40:36.015Z,3.05
2017-12-27T00:43:03.503Z,2.55
2017-12-27T00:45:31.763Z,2.97
2017-12-27T00:47:59.208Z,3.28
2017-12-27T00:50:26.667Z,2.45
2017-12-27T00:52:55.020Z,3.05
2017-12-27T00:55:23.244Z,2.08
2017-12-27T00:57:50.720Z,2.58
2017-12-27T01:00:18.964Z,3.05
2017-12-27T01:02:47.951Z,2.70
2017-12-27T01:05:15.477Z,3.55
2017-12-27T01:07:42.919Z,2.58
2017-12-27T01:10:10.471Z,2.42
2017-12-27T01:12:38.024Z,2.35
2017-12-27T01:15:05.481Z,2.47
2017-12-27T01:17:33.695Z,2.03
2017-12-27T01:20:01.149Z,2.40
2017-12-27T01:22:28.703Z,3.10
2017-12-27T01:24:56.163Z,3.00
2017-12-27T01:27:24.411Z,2.50
2017-12-27T01:29:51.917Z,2.10
2017-12-27T01:32:19.402Z,2.50
2017-12-27T01:34:46.948Z,3.25
2017-12-27T01:37:15.191Z,2.40
2017-12-27T01:39:42.762Z,2.90
2017-12-27T01:42:10.979Z,2.55
2017-12-27T01:44:38.444Z,1.90
2017-12-27T01:47:14.481Z,2.90
2017-12-27T01:49:41.947Z,2.75
2017-12-27T01:52:10.183Z,2.97
2017-12-27T01:54:37.662Z,2.08
2017-12-27T01:57:05.114Z,2.45
2017-12-27T01:59:32.555Z,2.65
2017-12-27T02:02:00.023Z,2.65
2017-12-27T02:04:27.491Z,2.42
2017-12-27T02:06:54.942Z,2.30
2017-12-27T02:09:22.391Z,2.70
2017-12-27T02:11:50.613Z,2.70
2017-12-27T02:14:18.059Z,2.17
2017-12-27T02:16:45.623Z,2.30
2017-12-27T02:19:13.068Z,2.85
2017-12-27T02:21:41.319Z,2.53
2017-12-27T02:24:08.898Z,2.33
2017-12-27T02:26:37.128Z,2.75
2017-12-27T02:29:04.779Z,1.95
2017-12-27T02:31:33.011Z,2.42
2017-12-27T02:34:00.466Z,2.40
2017-12-27T02:36:28.021Z,3.05
2017-12-27T02:38:56.411Z,2.40
2017-12-27T02:41:24.848Z,2.58
2017-12-27T02:43:52.395Z,2.95
2017-12-27T02:46:19.851Z,3.30
2017-12-27T02:48:48.075Z,2.17
2017-12-27T02:51:15.638Z,2.15
2017-12-27T02:53:43.110Z,2.10
2017-12-27T02:56:10.615Z,2.05
2017-12-27T02:58:38.067Z,2.47
2017-12-27T03:01:06.328Z,2.47
2017-12-27T03:03:34.551Z,2.03
2017-12-27T03:06:02.019Z,2.12
2017-12-27T03:08:29.574Z,1.90
2017-12-27T03:10:57.023Z,2.15
2017-12-27T03:13:25.243Z,1.95
2017-12-27T03:15:52.711Z,2.20
2017-12-27T03:18:20.967Z,2.30
2017-12-27T03:20:48.411Z,2.15
2017-12-27T03:23:15.954Z,2.00
2017-12-27T03:25:43.503Z,1.85
2017-12-27T03:28:10.955Z,2.15
2017-12-27T03:30:39.219Z,1.60
2017-12-27T03:33:07.470Z,2.17
2017-12-27T03:35:35.723Z,2.40
2017-12-27T03:38:03.276Z,2.00
2017-12-27T03:40:30.740Z,1.92
2017-12-27T03:42:58.203Z,2.55
2017-12-27T03:45:25.691Z,2.53
2017-12-27T03:47:53.235Z,2.10
2017-12-27T03:50:20.791Z,2.35
2017-12-27T03:52:49.003Z,2.30
2017-12-27T03:55:16.492Z,2.10
2017-12-27T03:57:44.751Z,2.12
2017-12-27T04:00:12.987Z,2.05
2017-12-27T04:02:40.460Z,1.62
2017-12-27T04:05:08.677Z,1.85
2017-12-27T04:07:36.161Z,2.40
2017-12-27T04:10:04.412Z,1.98
2017-12-27T04:12:32.669Z,1.90
2017-12-27T04:15:00.107Z,2.35
2017-12-27T04:17:27.652Z,1.60
2017-12-27T04:19:55.104Z,1.80
2017-12-27T04:22:23.342Z,1.90
2017-12-27T04:24:50.808Z,1.83
2017-12-27T04:27:19.053Z,2.00
2017-12-27T04:29:46.602Z,1.85
2017-12-27T04:32:14.142Z,2.12
2017-12-27T04:34:42.380Z,1.83
2017-12-27T04:37:09.894Z,2.20
2017-12-27T04:39:37.386Z,2.05
2017-12-27T04:42:04.894Z,2.25
2017-12-27T04:44:32.356Z,2.00
2017-12-27T04:46:59.811Z,2.33
2017-12-27T04:49:27.267Z,1.75
2017-12-27T04:51:55.513Z,2.05
2017-12-27T04:54:22.977Z,1.52
2017-12-27T04:56:51.204Z,1.65
2017-12-27T04:59:19.639Z,1.67
2017-12-27T05:01:47.097Z,2.83
2017-12-27T05:04:14.547Z,1.80
2017-12-27T05:06:42.017Z,1.80
2017-12-27T05:09:10.264Z,2.30
2017-12-27T05:11:37.712Z,1.80
2017-12-27T05:14:06.015Z,1.92
2017-12-27T05:16:33.511Z,2.08
2017-12-27T05:19:01.741Z,1.70
2017-12-27T05:21:29.204Z,1.70
2017-12-27T05:23:56.750Z,1.50
2017-12-27T05:26:24.219Z,1.85
2017-12-27T05:28:51.671Z,1.95
2017-12-27T05:31:19.134Z,1.77
2017-12-27T05:33:46.591Z,2.10
2017-12-27T05:36:14.112Z,1.62
2017-12-27T05:38:41.598Z,1.92
2017-12-27T05:41:09.055Z,1.92
2017-12-27T05:43:37.311Z,1.60
2017-12-27T05:46:05.566Z,2.00
2017-12-27T05:48:33.800Z,2.25
2017-12-27T05:51:01.318Z,1.90
2017-12-27T05:53:28.755Z,1.77
2017-12-27T05:55:56.216Z,2.40
2017-12-27T05:58:23.672Z,2.00
2017-12-27T06:00:51.151Z,1.90
2017-12-27T06:03:19.499Z,1.90
2017-12-27T06:05:47.712Z,2.12
2017-12-27T06:08:15.250Z,2.00
2017-12-27T06:10:42.798Z,1.50
2017-12-27T06:13:10.279Z,2.05
2017-12-27T06:15:38.542Z,1.95
2017-12-27T06:18:06.083Z,1.90
2017-12-27T06:20:33.551Z,2.10
2017-12-27T06:23:01.771Z,1.80
2017-12-27T06:31:25.748Z,1.70
2017-12-27T06:33:53.207Z,1.83
2017-12-27T06:36:21.466Z,1.70
2017-12-27T06:38:49.699Z,2.00
2017-12-27T06:41:17.163Z,2.55
2017-12-27T06:43:45.426Z,2.00
2017-12-27T06:46:13.652Z,2.17
2017-12-27T06:48:41.174Z,1.95
2017-12-27T06:51:08.643Z,2.10
2017-12-27T06:53:36.104Z,1.80
2017-12-27T06:56:04.327Z,1.80
2017-12-27T06:58:31.808Z,2.05
2017-12-27T07:01:00.080Z,2.20
2017-12-27T07:03:28.307Z,1.90
2017-12-27T07:05:55.795Z,1.67
2017-12-27T07:08:23.316Z,1.90
2017-12-27T07:10:51.552Z,2.35
2017-12-27T07:13:19.008Z,2.00
2017-12-27T07:15:46.541Z,1.90
2017-12-27T07:18:14.775Z,2.10
2017-12-27T07:20:42.232Z,2.00
2017-12-27T07:23:10.460Z,1.50
2017-12-27T07:25:37.941Z,1.90
2017-12-27T07:28:06.215Z,2.05
2017-12-27T07:30:34.444Z,1.85
2017-12-27T07:33:02.004Z,1.75
2017-12-27T07:35:30.232Z,1.70
2017-12-27T07:37:57.688Z,1.85
2017-12-27T07:40:25.162Z,2.17
2017-12-27T07:42:52.629Z,2.22
2017-12-27T07:45:20.124Z,1.98
2017-12-27T07:47:48.367Z,2.00
2017-12-27T07:50:15.828Z,2.20
2017-12-27T07:52:44.096Z,2.25
2017-12-27T07:55:12.319Z,2.05
2017-12-27T07:57:39.779Z,2.65
2017-12-27T08:00:07.259Z,2.00
2017-12-27T08:02:34.735Z,2.15
2017-12-27T08:05:02.195Z,2.10
2017-12-27T08:07:29.659Z,2.80
2017-12-27T08:09:57.896Z,1.80
2017-12-27T08:12:25.390Z,2.33
2017-12-27T08:14:52.843Z,2.22
2017-12-27T08:17:20.304Z,2.20
2017-12-27T08:19:47.772Z,1.95
2017-12-27T08:22:15.344Z,2.10
2017-12-27T08:24:42.875Z,2.10
2017-12-27T08:27:11.094Z,2.33
2017-12-27T08:29:38.572Z,2.50
2017-12-27T08:32:06.827Z,2.67
2017-12-27T08:34:35.068Z,2.37
2017-12-27T08:37:02.571Z,2.20
2017-12-27T08:39:30.075Z,2.30
2017-12-27T08:41:58.335Z,2.03
2017-12-27T08:44:26.572Z,2.30
2017-12-27T08:46:54.056Z,2.33
2017-12-27T08:49:21.515Z,2.55
2017-12-27T08:51:49.033Z,2.30
2017-12-27T08:54:17.273Z,2.20
2017-12-27T08:56:44.832Z,2.40
2017-12-27T08:59:13.084Z,2.17
2017-12-27T09:01:41.353Z,2.45
2017-12-27T09:04:09.627Z,2.10
2017-12-27T09:06:37.084Z,2.22
2017-12-27T09:09:04.599Z,2.15
2017-12-27T09:11:32.849Z,2.40
2017-12-27T09:14:01.124Z,2.58
2017-12-27T09:16:29.369Z,2.10
2017-12-27T09:18:57.634Z,2.35
2017-12-27T09:21:25.879Z,2.22
2017-12-27T09:23:53.440Z,2.58
2017-12-27T09:26:21.663Z,1.95
2017-12-27T09:28:49.139Z,2.37
2017-12-27T09:31:17.399Z,2.60
2017-12-27T09:33:45.664Z,1.90
2017-12-27T09:36:16.123Z,2.17
2017-12-27T09:38:43.607Z,1.92
2017-12-27T09:41:11.854Z,2.37
2017-12-27T09:43:39.411Z,1.95
2017-12-27T09:46:07.642Z,2.08
2017-12-27T09:48:35.123Z,1.90
2017-12-27T09:51:03.347Z,2.20
2017-12-27T09:53:30.863Z,2.03
2017-12-27T09:55:58.371Z,1.92
2017-12-27T09:58:26.605Z,2.05
2017-12-27T10:03:44.660Z,1.92
2017-12-27T10:06:12.141Z,1.90
2017-12-27T10:08:40.376Z,2.28
2017-12-27T10:11:07.931Z,1.85
2017-12-27T10:13:36.161Z,1.75
2017-12-27T10:16:03.636Z,1.42
2017-12-27T10:18:31.880Z,1.48
2017-12-27T10:20:59.336Z,1.48
2017-12-27T10:23:27.620Z,1.45
2017-12-27T10:25:55.079Z,1.10
2017-12-27T10:28:23.405Z,1.23
2017-12-27T10:30:51.640Z,1.50
2017-12-27T10:33:19.199Z,1.30
2017-12-27T10:35:46.749Z,1.60
2017-12-27T10:38:14.984Z,1.20
2017-12-27T10:40:42.456Z,1.10
2017-12-27T10:46:02.635Z,1.33
2017-12-27T10:51:21.759Z,1.75
2017-12-27T10:53:49.231Z,1.37
2017-12-27T10:56:16.692Z,1.37
2017-12-27T10:58:44.156Z,1.60
2017-12-27T11:01:11.640Z,1.73
2017-12-27T11:03:39.872Z,1.40
2017-12-27T11:06:07.359Z,1.90
2017-12-27T11:08:34.889Z,1.27
2017-12-27T11:11:02.360Z,1.30
2017-12-27T11:13:29.819Z,1.45
2017-12-27T11:15:58.264Z,1.45
2017-12-27T11:18:25.740Z,1.35
2017-12-27T11:20:53.190Z,1.40
2017-12-27T11:23:21.431Z,1.73
2017-12-27T11:25:48.996Z,1.10
2017-12-27T11:28:17.220Z,1.52
2017-12-27T11:30:44.691Z,1.55
2017-12-27T11:33:12.147Z,1.80
2017-12-27T11:35:40.552Z,1.10
2017-12-27T11:38:08.020Z,1.60
2017-12-27T11:40:35.483Z,1.30
2017-12-27T11:43:03.750Z,1.20
2017-12-27T11:45:31.999Z,1.50
2017-12-27T11:48:00.260Z,1.33
2017-12-27T11:50:28.543Z,1.20
2017-12-27T11:52:56.074Z,1.60
2017-12-27T11:55:24.297Z,1.52
2017-12-27T11:57:51.806Z,1.40
2017-12-27T12:00:20.463Z,1.52
2017-12-27T12:02:47.940Z,1.30
2017-12-27T12:05:16.157Z,1.45
2017-12-27T12:07:43.619Z,1.50
2017-12-27T12:10:11.850Z,1.60
2017-12-27T12:12:40.688Z,1.62
2017-12-27T12:17:59.925Z,1.60
2017-12-27T12:20:30.324Z,1.52
2017-12-27T12:22:57.833Z,1.55
2017-12-27T12:25:26.055Z,1.40
2017-12-27T12:27:53.519Z,1.40
2017-12-27T12:30:21.079Z,1.48
2017-12-27T12:32:49.357Z,1.98
2017-12-27T12:35:16.888Z,1.48
2017-12-27T12:37:45.141Z,1.90
2017-12-27T12:40:13.398Z,1.70
2017-12-27T12:42:41.660Z,1.58
2017-12-27T12:45:09.973Z,1.60
2017-12-27T12:47:37.427Z,2.10
2017-12-27T12:50:05.011Z,1.98
2017-12-27T12:52:33.238Z,2.05
2017-12-27T12:55:00.728Z,1.83
2017-12-27T12:57:28.210Z,6.57
2017-12-27T12:59:55.681Z,4.37
2017-12-27T13:02:23.234Z,2.00
2017-12-27T13:04:51.481Z,2.95
2017-12-27T13:07:19.057Z,3.62
2017-12-27T13:09:47.279Z,2.20
2017-12-27T13:12:14.747Z,2.55
2017-12-27T13:14:42.976Z,2.90
2017-12-27T13:17:10.437Z,1.73
2017-12-27T13:19:37.903Z,1.92
2017-12-27T13:22:06.144Z,1.30
2017-12-27T13:24:33.622Z,1.73
2017-12-27T13:27:02.755Z,2.70
2017-12-27T13:29:30.211Z,1.65
2017-12-27T13:31:57.682Z,2.05
2017-12-27T13:34:25.916Z,2.15
2017-12-27T13:36:53.377Z,2.00
2017-12-27T13:39:21.647Z,1.55
2017-12-27T13:41:49.877Z,1.70
2017-12-27T13:44:17.348Z,1.92
2017-12-27T13:46:45.575Z,1.90
2017-12-27T13:49:13.027Z,2.05
2017-12-27T13:51:40.584Z,1.50
2017-12-27T13:54:08.811Z,2.22
2017-12-27T13:56:36.286Z,2.20
2017-12-27T13:59:04.535Z,1.60
2017-12-27T14:01:32.087Z,1.90
2017-12-27T14:04:00.358Z,1.65
2017-12-27T14:06:28.608Z,1.98
2017-12-27T14:08:56.924Z,1.90
2017-12-27T14:11:24.468Z,1.75
2017-12-27T14:13:51.918Z,1.70
2017-12-27T14:16:19.403Z,1.55
2017-12-27T14:18:47.658Z,2.22
2017-12-27T14:21:15.924Z,1.90
2017-12-27T14:23:43.449Z,1.90
2017-12-27T14:26:11.708Z,1.50
2017-12-27T14:28:39.963Z,1.90
2017-12-27T14:31:08.239Z,1.80
2017-12-27T14:33:36.494Z,1.83
2017-12-27T14:36:04.756Z,1.50
2017-12-27T14:38:33.012Z,1.95
2017-12-27T14:41:01.232Z,1.65
2017-12-27T14:43:28.700Z,1.95
2017-12-27T14:45:56.160Z,1.95
2017-12-27T14:48:24.407Z,1.80
2017-12-27T14:50:52.668Z,1.90
2017-12-27T14:53:20.913Z,1.85
2017-12-27T14:55:48.359Z,2.00
2017-12-27T14:58:15.823Z,2.30
2017-12-27T15:00:44.075Z,1.92
2017-12-27T15:03:12.332Z,2.22
2017-12-27T15:05:40.556Z,2.12
2017-12-27T15:08:08.012Z,2.12
2017-12-27T15:10:37.011Z,2.12
2017-12-27T15:13:05.292Z,2.30
2017-12-27T15:15:33.517Z,1.80
2017-12-27T15:18:00.975Z,2.05
2017-12-27T15:20:29.239Z,2.30
2017-12-27T15:22:56.690Z,1.80
2017-12-27T15:25:24.211Z,2.35
2017-12-27T15:27:52.458Z,2.15
2017-12-27T15:30:19.915Z,2.17
2017-12-27T15:32:48.180Z,2.00
2017-12-27T15:35:16.411Z,2.10
2017-12-27T15:37:43.879Z,3.28
2017-12-27T15:40:12.120Z,2.20
2017-12-27T15:42:40.346Z,3.30
2017-12-27T15:45:07.839Z,1.70
2017-12-27T15:47:36.089Z,2.10
2017-12-27T15:50:03.551Z,1.90
2017-12-27T15:52:31.089Z,2.15
2017-12-27T15:54:59.327Z,2.45
2017-12-27T15:57:26.888Z,2.42
2017-12-27T15:59:55.114Z,2.28
2017-12-27T16:02:22.819Z,4.85
2017-12-27T16:04:50.283Z,2.10
2017-12-27T16:07:17.756Z,2.50
2017-12-27T16:09:45.212Z,2.85
2017-12-27T16:12:13.479Z,2.25
2017-12-27T16:14:41.735Z,2.40
2017-12-27T16:17:09.971Z,1.95
2017-12-27T16:19:37.463Z,2.22
2017-12-27T16:22:04.989Z,2.97
2017-12-27T16:24:32.501Z,2.65
2017-12-27T16:27:00.752Z,2.90
2017-12-27T16:29:28.971Z,2.87
2017-12-27T16:31:56.431Z,3.20
2017-12-27T16:34:23.991Z,3.05
2017-12-27T16:36:52.227Z,2.90
2017-12-27T16:39:19.699Z,5.65
2017-12-27T16:41:47.954Z,3.65
2017-12-27T16:44:16.216Z,3.55
2017-12-27T16:46:44.474Z,4.50
2017-12-27T16:49:12.699Z,4.18
2017-12-27T16:51:40.155Z,4.05
2017-12-27T16:54:07.615Z,4.90
2017-12-27T16:56:35.088Z,5.22
2017-12-27T16:59:02.578Z,4.40
2017-12-27T17:01:30.041Z,4.82
2017-12-27T17:03:57.499Z,4.82
2017-12-27T17:06:24.980Z,4.55
2017-12-27T17:08:52.435Z,4.05
2017-12-27T17:11:19.913Z,3.80
2017-12-27T17:13:48.178Z,3.53
2017-12-27T17:16:16.437Z,3.80
2017-12-27T17:18:44.655Z,3.58
2017-12-27T17:21:12.130Z,4.15
2017-12-27T17:23:40.426Z,5.18
2017-12-27T17:26:07.990Z,6.65
2017-12-27T17:28:35.533Z,6.10
2017-12-27T17:31:03.008Z,11.40
2017-12-27T17:33:30.572Z,10.50
2017-12-27T17:35:58.799Z,8.75
2017-12-27T17:38:26.259Z,7.40
2017-12-27T17:40:53.730Z,5.90
2017-12-27T17:43:21.211Z,5.32
2017-12-27T17:45:48.665Z,5.53
2017-12-27T17:48:16.135Z,4.70
2017-12-27T17:50:44.450Z,5.80
2017-12-27T17:53:11.939Z,6.07
2017-12-27T17:55:40.179Z,5.68
2017-12-27T17:58:07.740Z,7.53
2017-12-27T18:00:35.208Z,6.93
2017-12-27T18:03:02.673Z,6.55
2017-12-27T18:05:30.167Z,6.62
2017-12-27T18:07:58.436Z,7.50
2017-12-27T18:10:26.692Z,7.20
2017-12-27T18:12:54.913Z,7.40
2017-12-27T18:15:22.396Z,8.10
2017-12-27T18:17:50.664Z,11.10
2017-12-27T18:20:18.965Z,10.90
2017-12-27T18:22:46.468Z,11.32
2017-12-27T18:25:13.904Z,8.60
2017-12-27T18:27:42.151Z,9.23
2017-12-27T18:30:09.696Z,8.30
2017-12-27T18:32:37.964Z,6.35
2017-12-27T18:35:06.227Z,6.53
2017-12-27T18:37:34.451Z,8.65
2017-12-27T18:40:01.932Z,10.50
2017-12-27T18:42:30.183Z,13.18
2017-12-27T18:44:58.412Z,10.18
2017-12-27T18:47:25.887Z,11.02
2017-12-27T18:49:53.348Z,13.02
2017-12-27T18:52:20.824Z,13.62
2017-12-27T18:54:48.288Z,21.05
2017-12-27T18:57:15.758Z,19.60
2017-12-27T18:59:43.989Z,9.55
2017-12-27T19:02:11.563Z,11.27
2017-12-27T19:04:39.815Z,12.15
2017-12-27T19:07:08.056Z,9.93
2017-12-27T19:09:35.517Z,11.60
2017-12-27T19:12:03.768Z,11.02
2017-12-27T19:14:31.231Z,10.35
2017-12-27T19:16:59.460Z,9.63
2017-12-27T19:19:26.932Z,9.35
2017-12-27T19:21:55.182Z,10.32
2017-12-27T19:24:23.414Z,9.40
2017-12-27T19:26:50.878Z,10.45
2017-12-27T19:29:19.140Z,9.50
2017-12-27T19:31:47.364Z,9.65
2017-12-27T19:34:14.840Z,9.23
2017-12-27T19:36:43.101Z,9.95
2017-12-27T19:39:11.336Z,9.10
2017-12-27T19:41:38.808Z,9.40
2017-12-27T19:44:07.033Z,9.65
2017-12-27T19:46:34.497Z,9.40
2017-12-27T19:49:02.055Z,10.35
2017-12-27T19:51:30.312Z,10.10
2017-12-27T19:53:58.622Z,10.23
2017-12-27T19:56:26.073Z,9.63
2017-12-27T19:58:53.542Z,9.40
2017-12-27T20:01:21.095Z,10.85
2017-12-27T20:03:49.332Z,8.75
2017-12-27T20:06:16.790Z,8.90
2017-12-27T20:08:44.261Z,10.40
2017-12-27T20:11:11.788Z,8.52
2017-12-27T20:13:40.043Z,8.65
2017-12-27T20:16:08.283Z,10.23
2017-12-27T20:18:35.759Z,9.38
2017-12-27T20:21:04.016Z,8.80
2017-12-27T20:23:32.367Z,8.93
2017-12-27T20:26:00.637Z,9.48
2017-12-27T20:28:28.860Z,9.15
2017-12-27T20:30:56.432Z,8.30
2017-12-27T20:33:24.696Z,8.60
2017-12-27T20:35:52.932Z,6.72
2017-12-27T20:38:20.396Z,7.28
2017-12-27T20:40:48.622Z,8.00
2017-12-27T20:43:16.083Z,8.43
2017-12-27T20:45:43.556Z,8.68
2017-12-27T20:48:11.015Z,9.25
2017-12-27T20:50:38.488Z,9.48
2017-12-27T20:53:06.013Z,9.52
2017-12-27T20:55:33.484Z,8.68
2017-12-27T20:58:01.054Z,9.05
2017-12-27T21:00:29.275Z,9.00
2017-12-27T21:02:56.755Z,9.70
2017-12-27T21:05:25.008Z,8.02
2017-12-27T21:07:53.278Z,9.10
2017-12-27T21:10:21.544Z,8.55
2017-12-27T21:12:49.775Z,9.10
2017-12-27T21:15:17.331Z,8.43
2017-12-27T21:17:45.580Z,7.62
2017-12-27T21:20:13.036Z,6.85
2017-12-27T21:22:41.291Z,6.55
2017-12-27T21:25:09.520Z,6.97
2017-12-27T21:27:37.037Z,7.37
2017-12-27T21:30:04.539Z,6.47
2017-12-27T21:32:32.072Z,6.25
2017-12-27T21:34:59.524Z,6.22
2017-12-27T21:37:27.756Z,6.57
2017-12-27T21:39:55.330Z,6.32
2017-12-27T21:42:23.563Z,7.60
2017-12-27T21:44:51.020Z,6.35
2017-12-27T21:47:38.391Z,6.95
2017-12-27T21:50:05.894Z,6.47
2017-12-27T21:52:34.109Z,6.32
2017-12-27T21:55:01.571Z,5.80
2017-12-27T21:57:29.792Z,5.53
2017-12-27T22:00:02.880Z,6.15
2017-12-27T22:02:30.360Z,5.78
2017-12-27T22:04:58.591Z,6.93
2017-12-27T22:07:26.157Z,6.47
2017-12-27T22:09:54.464Z,6.18
2017-12-27T22:12:22.648Z,6.12
2017-12-27T22:14:50.111Z,6.68
2017-12-27T22:17:18.356Z,5.90
2017-12-27T22:19:45.850Z,5.45
2017-12-27T22:22:13.296Z,7.05
2017-12-27T22:24:40.756Z,5.95
2017-12-27T22:27:08.260Z,6.12
2017-12-27T22:29:35.763Z,7.50
2017-12-27T22:32:03.238Z,9.52
2017-12-27T22:34:31.488Z,8.00
2017-12-27T22:36:59.734Z,9.85
2017-12-27T22:39:27.295Z,9.63
2017-12-27T22:41:55.565Z,11.63
2017-12-27T22:44:23.804Z,12.63
2017-12-27T22:46:51.285Z,13.65
2017-12-27T22:49:18.800Z,14.00
2017-12-27T22:51:47.036Z,14.40
2017-12-27T22:54:14.499Z,14.48
2017-12-27T22:56:42.737Z,13.88
2017-12-27T22:59:10.239Z,13.10
2017-12-27T23:01:37.723Z,15.50
2017-12-27T23:04:06.719Z,13.10
2017-12-27T23:06:34.216Z,11.60
2017-12-27T23:09:01.698Z,8.13
2017-12-27T23:11:29.216Z,5.85
2017-12-27T23:13:56.691Z,4.75
2017-12-27T23:16:25.053Z,3.53
2017-12-27T23:18:53.314Z,3.80
2017-12-27T23:21:21.628Z,2.80
2017-12-27T23:23:49.136Z,2.97
2017-12-27T23:26:17.354Z,2.10
2017-12-27T23:28:44.828Z,2.75
2017-12-27T23:31:12.290Z,2.45
2017-12-27T23:33:40.582Z,2.55
2017-12-27T23:36:08.850Z,2.50
2017-12-27T23:38:36.344Z,1.90
2017-12-27T23:41:04.566Z,2.30
2017-12-27T23:43:32.020Z,1.90
2017-12-27T23:45:59.489Z,2.05
2017-12-27T23:48:27.707Z,2.00
2017-12-27T23:50:55.188Z,1.65
2017-12-27T23:53:23.408Z,1.75
2017-12-27T23:55:50.891Z,2.00
2017-12-27T23:58:19.151Z,1.40
